createdAt,value
2019-06-19T00:00:09.460Z,22.73
2019-06-19T00:02:37.744Z,22.61
2019-06-19T00:05:06.497Z,22.47
2019-06-19T00:07:34.857Z,22.55
2019-06-19T00:10:03.516Z,22.59
2019-06-19T00:12:33.225Z,22.59
2019-06-19T00:15:02.943Z,22.67
2019-06-19T00:17:32.871Z,22.68
2019-06-19T00:20:02.881Z,22.58
2019-06-19T00:22:33.739Z,22.62
2019-06-19T00:25:03.891Z,22.63
2019-06-19T00:27:31.624Z,22.60
2019-06-19T00:30:01.715Z,22.60
2019-06-19T00:32:31.209Z,22.59
2019-06-19T00:35:00.981Z,22.55
2019-06-19T00:37:31.653Z,22.60
2019-06-19T00:40:01.322Z,22.61
2019-06-19T00:42:31.243Z,22.65
2019-06-19T00:45:01.092Z,22.65
2019-06-19T00:47:31.614Z,22.57
2019-06-19T00:50:00.881Z,22.60
2019-06-19T00:52:31.621Z,22.57
2019-06-19T00:55:04.088Z,22.49
2019-06-19T00:57:32.408Z,22.50
2019-06-19T01:00:02.159Z,22.49
2019-06-19T01:02:30.979Z,22.44
2019-06-19T01:05:00.687Z,22.42
2019-06-19T01:07:30.821Z,22.37
2019-06-19T01:10:00.997Z,22.31
2019-06-19T01:12:30.981Z,22.26
2019-06-19T01:15:01.188Z,22.22
2019-06-19T01:17:30.958Z,22.14
2019-06-19T01:20:00.749Z,22.01
2019-06-19T01:22:30.856Z,21.86
2019-06-19T01:25:01.648Z,21.72
2019-06-19T01:27:31.404Z,21.67
2019-06-19T01:30:11.609Z,21.67
2019-06-19T01:32:30.694Z,21.67
2019-06-19T01:35:00.961Z,21.65
2019-06-19T01:37:31.352Z,21.63
2019-06-19T01:40:01.465Z,21.65
2019-06-19T01:42:30.704Z,21.62
2019-06-19T01:45:01.489Z,21.56
2019-06-19T01:47:30.848Z,21.52
2019-06-19T01:50:01.021Z,21.50
2019-06-19T01:52:30.882Z,21.43
2019-06-19T01:55:01.320Z,21.34
2019-06-19T01:57:31.491Z,21.26
2019-06-19T02:00:01.749Z,21.19
2019-06-19T02:02:31.953Z,21.15
2019-06-19T02:05:01.548Z,21.23
2019-06-19T02:07:30.924Z,21.16
2019-06-19T02:10:01.635Z,21.09
2019-06-19T02:12:30.955Z,21.05
2019-06-19T02:15:01.523Z,20.99
2019-06-19T02:17:31.330Z,20.94
2019-06-19T02:20:00.836Z,20.88
2019-06-19T02:22:30.687Z,20.85
2019-06-19T02:25:01.401Z,20.84
2019-06-19T02:27:30.491Z,20.80
2019-06-19T02:30:01.669Z,20.83
2019-06-19T02:32:34.640Z,20.83
2019-06-19T02:35:02.244Z,20.83
2019-06-19T02:37:32.127Z,20.82
2019-06-19T02:40:01.095Z,20.88
2019-06-19T02:42:29.534Z,20.88
2019-06-19T02:44:57.826Z,20.90
2019-06-19T02:47:26.150Z,20.88
2019-06-19T02:49:54.523Z,20.87
2019-06-19T02:52:23.008Z,20.80
2019-06-19T02:54:51.391Z,20.80
2019-06-19T02:57:19.785Z,20.65
2019-06-19T02:59:48.139Z,20.59
2019-06-19T03:02:16.460Z,20.59
2019-06-19T03:04:44.824Z,20.61
2019-06-19T03:07:13.150Z,20.73
2019-06-19T03:09:41.768Z,20.63
2019-06-19T03:12:10.083Z,20.73
2019-06-19T03:14:38.375Z,20.71
2019-06-19T03:17:06.849Z,20.74
2019-06-19T03:19:35.205Z,20.70
2019-06-19T03:22:03.625Z,20.67
2019-06-19T03:24:31.939Z,20.63
2019-06-19T03:27:00.276Z,20.58
2019-06-19T03:29:28.568Z,20.54
2019-06-19T03:31:56.961Z,20.52
2019-06-19T03:34:25.383Z,20.47
2019-06-19T03:36:53.747Z,20.46
2019-06-19T03:39:22.051Z,20.47
2019-06-19T03:41:50.537Z,20.45
2019-06-19T03:44:19.062Z,20.38
2019-06-19T03:46:49.702Z,20.43
2019-06-19T03:49:17.567Z,20.50
2019-06-19T03:51:45.957Z,20.52
2019-06-19T03:54:14.436Z,20.55
2019-06-19T03:56:42.868Z,20.58
2019-06-19T03:59:11.298Z,20.60
2019-06-19T04:01:48.923Z,20.63
2019-06-19T04:04:09.873Z,20.67
2019-06-19T04:06:38.236Z,20.68
2019-06-19T04:09:06.931Z,20.65
2019-06-19T04:11:35.315Z,20.69
2019-06-19T04:14:03.958Z,20.64
2019-06-19T04:16:32.381Z,20.64
2019-06-19T04:19:00.709Z,20.75
2019-06-19T04:21:29.101Z,20.84
2019-06-19T04:23:57.428Z,20.88
2019-06-19T04:26:25.809Z,20.93
2019-06-19T04:29:00.201Z,21.00
2019-06-19T04:31:28.490Z,20.97
2019-06-19T04:33:56.811Z,20.99
2019-06-19T04:36:25.110Z,20.96
2019-06-19T04:38:53.475Z,21.05
2019-06-19T04:41:21.805Z,21.13
2019-06-19T04:43:50.234Z,21.10
2019-06-19T04:46:18.740Z,21.06
2019-06-19T04:48:47.057Z,21.08
2019-06-19T04:51:15.435Z,21.13
2019-06-19T04:53:43.892Z,21.21
2019-06-19T04:56:12.265Z,21.28
2019-06-19T04:58:40.727Z,21.28
2019-06-19T05:01:09.195Z,21.28
2019-06-19T05:03:37.799Z,21.31
2019-06-19T05:06:06.280Z,21.35
2019-06-19T05:08:43.662Z,21.37
2019-06-19T05:11:11.990Z,21.45
2019-06-19T05:13:40.428Z,21.56
2019-06-19T05:16:08.921Z,21.62
2019-06-19T05:18:37.217Z,21.74
2019-06-19T05:21:05.673Z,21.84
2019-06-19T05:23:34.052Z,22.00
2019-06-19T05:26:02.464Z,22.11
2019-06-19T05:28:30.750Z,22.19
2019-06-19T05:30:59.091Z,22.34
2019-06-19T05:33:27.561Z,22.42
2019-06-19T05:35:56.274Z,22.56
2019-06-19T05:38:24.654Z,22.73
2019-06-19T05:40:52.975Z,22.72
2019-06-19T05:43:21.266Z,22.63
2019-06-19T05:45:49.618Z,22.58
2019-06-19T05:48:17.992Z,22.57
2019-06-19T05:50:46.501Z,22.61
2019-06-19T05:53:16.720Z,22.64
2019-06-19T05:55:45.072Z,22.66
2019-06-19T05:58:13.417Z,22.75
2019-06-19T06:00:41.783Z,22.90
2019-06-19T06:03:10.122Z,23.05
2019-06-19T06:05:38.396Z,23.28
2019-06-19T06:08:06.787Z,23.26
2019-06-19T06:10:35.077Z,23.25
2019-06-19T06:13:03.396Z,23.42
2019-06-19T06:15:31.683Z,23.52
2019-06-19T06:18:00.074Z,23.63
2019-06-19T06:20:30.091Z,23.76
2019-06-19T06:22:58.473Z,23.79
2019-06-19T06:25:26.753Z,23.77
2019-06-19T06:27:55.059Z,23.69
2019-06-19T06:30:23.674Z,23.72
2019-06-19T06:33:07.466Z,23.78
2019-06-19T06:35:22.077Z,23.96
2019-06-19T06:37:50.525Z,24.18
2019-06-19T06:40:19.009Z,24.32
2019-06-19T06:42:47.452Z,24.44
2019-06-19T06:45:15.858Z,24.56
2019-06-19T06:47:44.261Z,24.63
2019-06-19T06:50:13.066Z,24.69
2019-06-19T06:52:41.456Z,24.83
2019-06-19T06:55:09.819Z,24.89
2019-06-19T06:57:38.206Z,24.77
2019-06-19T07:00:07.329Z,24.94
2019-06-19T07:02:35.725Z,25.12
2019-06-19T07:05:07.506Z,25.32
2019-06-19T07:07:35.819Z,25.50
2019-06-19T07:10:06.243Z,25.63
2019-06-19T07:12:34.623Z,25.56
2019-06-19T07:15:03.422Z,25.45
2019-06-19T07:17:32.538Z,25.51
2019-06-19T07:20:00.943Z,25.67
2019-06-19T07:22:29.241Z,25.90
2019-06-19T07:24:57.644Z,26.01
2019-06-19T07:27:26.913Z,26.15
2019-06-19T07:29:55.241Z,26.18
2019-06-19T07:32:23.608Z,26.31
2019-06-19T07:34:51.925Z,26.38
2019-06-19T07:37:20.294Z,26.48
2019-06-19T07:39:49.025Z,26.51
2019-06-19T07:42:17.379Z,26.50
2019-06-19T07:44:45.760Z,26.59
2019-06-19T07:47:14.066Z,26.64
2019-06-19T07:49:42.410Z,26.75
2019-06-19T07:52:10.706Z,26.85
2019-06-19T07:54:39.031Z,26.88
2019-06-19T07:57:07.362Z,26.88
2019-06-19T07:59:35.678Z,27.01
2019-06-19T08:02:04.879Z,27.13
2019-06-19T08:04:33.450Z,27.21
2019-06-19T08:07:01.757Z,27.47
2019-06-19T08:09:30.283Z,27.72
2019-06-19T08:11:58.624Z,27.95
2019-06-19T08:14:27.729Z,28.11
2019-06-19T08:16:56.090Z,28.21
2019-06-19T08:19:24.440Z,28.13
2019-06-19T08:21:52.774Z,28.04
2019-06-19T08:24:21.130Z,27.91
2019-06-19T08:26:49.533Z,27.89
2019-06-19T08:29:17.883Z,28.17
2019-06-19T08:31:46.588Z,28.43
2019-06-19T08:34:15.259Z,28.45
2019-06-19T08:36:43.647Z,28.65
2019-06-19T08:39:12.143Z,28.84
2019-06-19T08:41:40.505Z,29.05
2019-06-19T08:44:08.780Z,29.13
2019-06-19T08:46:37.113Z,29.25
2019-06-19T08:49:05.488Z,29.41
2019-06-19T08:51:33.823Z,29.46
2019-06-19T08:54:02.159Z,29.41
2019-06-19T08:56:30.482Z,29.50
2019-06-19T08:58:58.976Z,29.69
2019-06-19T09:01:27.339Z,29.81
2019-06-19T09:03:55.669Z,29.83
2019-06-19T09:06:24.035Z,29.81
2019-06-19T09:08:52.368Z,30.02
2019-06-19T09:11:22.509Z,30.24
2019-06-19T09:13:50.849Z,30.43
2019-06-19T09:16:19.165Z,30.65
2019-06-19T09:18:47.503Z,30.78
2019-06-19T09:21:15.946Z,30.84
2019-06-19T09:23:44.485Z,31.00
2019-06-19T09:26:12.962Z,30.98
2019-06-19T09:28:41.667Z,31.01
2019-06-19T09:31:10.120Z,31.06
2019-06-19T09:33:38.446Z,30.94
2019-06-19T09:36:06.828Z,30.92
2019-06-19T09:38:35.154Z,31.00
2019-06-19T09:41:03.721Z,31.13
2019-06-19T09:43:32.100Z,31.37
2019-06-19T09:46:00.415Z,31.55
2019-06-19T09:48:28.953Z,31.78
2019-06-19T09:50:57.309Z,31.88
2019-06-19T09:53:25.661Z,31.80
2019-06-19T09:55:54.154Z,31.80
2019-06-19T09:58:22.511Z,31.77
2019-06-19T10:00:50.936Z,31.90
2019-06-19T10:03:32.906Z,32.04
2019-06-19T10:05:49.442Z,32.13
2019-06-19T10:08:17.800Z,32.29
2019-06-19T10:10:46.138Z,32.45
2019-06-19T10:13:14.433Z,32.60
2019-06-19T10:15:42.844Z,32.73
2019-06-19T10:18:12.410Z,32.69
2019-06-19T10:20:40.848Z,32.72
2019-06-19T10:23:09.270Z,32.82
2019-06-19T10:25:37.732Z,33.03
2019-06-19T10:28:06.107Z,33.15
2019-06-19T10:30:38.145Z,32.97
2019-06-19T10:33:07.153Z,33.15
2019-06-19T10:35:35.962Z,33.32
2019-06-19T10:38:04.564Z,33.34
2019-06-19T10:40:33.020Z,33.42
2019-06-19T10:43:02.377Z,33.61
2019-06-19T10:45:30.782Z,33.72
2019-06-19T10:47:59.072Z,33.68
2019-06-19T10:50:27.581Z,33.53
2019-06-19T10:52:55.940Z,33.14
2019-06-19T10:55:24.364Z,33.22
2019-06-19T10:57:52.710Z,33.42
2019-06-19T11:00:21.471Z,32.31
2019-06-19T11:02:49.772Z,33.33
2019-06-19T11:05:18.358Z,33.20
2019-06-19T11:07:46.749Z,33.17
2019-06-19T11:10:15.225Z,33.30
2019-06-19T11:12:43.660Z,33.38
2019-06-19T11:15:12.702Z,33.48
2019-06-19T11:17:41.107Z,33.59
2019-06-19T11:20:09.730Z,33.75
2019-06-19T11:22:38.040Z,33.70
2019-06-19T11:25:06.639Z,33.75
2019-06-19T11:27:35.045Z,33.82
2019-06-19T11:30:04.984Z,34.06
2019-06-19T11:32:33.370Z,34.19
2019-06-19T11:35:01.756Z,34.28
2019-06-19T11:37:30.194Z,34.39
2019-06-19T11:39:58.767Z,34.50
2019-06-19T11:42:27.103Z,34.69
2019-06-19T11:44:55.389Z,34.91
2019-06-19T11:47:23.805Z,35.05
2019-06-19T11:49:52.299Z,35.11
2019-06-19T11:52:20.662Z,35.10
2019-06-19T11:54:49.006Z,34.81
2019-06-19T11:57:17.509Z,34.50
2019-06-19T11:59:53.462Z,34.61
2019-06-19T12:02:15.885Z,35.03
2019-06-19T12:04:44.213Z,35.27
2019-06-19T12:07:12.579Z,35.48
2019-06-19T12:09:40.914Z,35.57
2019-06-19T12:12:09.336Z,35.28
2019-06-19T12:14:37.743Z,35.49
2019-06-19T12:17:06.110Z,35.71
2019-06-19T12:19:34.508Z,36.08
2019-06-19T12:22:02.789Z,36.11
2019-06-19T12:24:31.410Z,35.84
2019-06-19T12:26:59.770Z,35.38
2019-06-19T12:29:29.680Z,35.40
2019-06-19T12:31:57.992Z,35.38
2019-06-19T12:34:26.312Z,35.25
2019-06-19T12:36:54.876Z,35.66
2019-06-19T12:39:23.236Z,35.96
2019-06-19T12:41:51.525Z,36.37
2019-06-19T12:44:19.917Z,36.56
2019-06-19T12:46:48.297Z,36.87
2019-06-19T12:49:16.829Z,36.96
2019-06-19T12:51:45.246Z,36.89
2019-06-19T12:54:13.669Z,36.62
2019-06-19T12:56:41.976Z,36.51
2019-06-19T12:59:10.341Z,36.79
2019-06-19T13:01:38.702Z,36.94
2019-06-19T13:04:07.187Z,36.39
2019-06-19T13:06:46.618Z,36.43
2019-06-19T13:09:07.751Z,36.45
2019-06-19T13:11:36.197Z,36.20
2019-06-19T13:14:04.757Z,36.18
2019-06-19T13:16:33.241Z,36.37
2019-06-19T13:19:01.529Z,36.74
2019-06-19T13:21:29.840Z,36.97
2019-06-19T13:23:58.134Z,37.08
2019-06-19T13:26:26.602Z,36.81
2019-06-19T13:28:54.957Z,36.66
2019-06-19T13:31:23.410Z,36.53
2019-06-19T13:33:51.791Z,36.62
2019-06-19T13:36:20.115Z,37.03
2019-06-19T13:38:48.414Z,37.22
2019-06-19T13:41:21.445Z,37.38
2019-06-19T13:43:47.262Z,37.30
2019-06-19T13:46:15.774Z,37.34
2019-06-19T13:48:44.109Z,37.53
2019-06-19T13:51:12.454Z,37.28
2019-06-19T13:53:40.718Z,37.33
2019-06-19T13:56:09.110Z,37.18
2019-06-19T13:58:37.478Z,36.53
2019-06-19T14:01:05.787Z,35.69
2019-06-19T14:03:46.922Z,35.67
2019-06-19T14:06:04.294Z,35.94
2019-06-19T14:08:32.616Z,36.16
2019-06-19T14:11:00.966Z,35.95
2019-06-19T14:13:29.398Z,35.60
2019-06-19T14:15:57.686Z,35.17
2019-06-19T14:18:26.013Z,34.59
2019-06-19T14:20:54.297Z,34.32
2019-06-19T14:23:22.698Z,34.25
2019-06-19T14:25:50.983Z,34.12
2019-06-19T14:28:19.539Z,33.88
2019-06-19T14:30:47.983Z,33.60
2019-06-19T14:33:16.453Z,33.45
2019-06-19T14:35:47.937Z,33.06
2019-06-19T14:38:14.881Z,32.76
2019-06-19T14:40:43.217Z,32.64
2019-06-19T14:43:11.550Z,32.42
2019-06-19T14:45:39.990Z,32.24
2019-06-19T14:48:08.317Z,32.11
2019-06-19T14:50:36.634Z,31.93
2019-06-19T14:53:05.054Z,31.79
2019-06-19T14:55:33.415Z,31.68
2019-06-19T14:58:01.727Z,31.45
2019-06-19T15:00:51.196Z,31.21
2019-06-19T15:03:19.531Z,31.09
2019-06-19T15:05:47.964Z,30.76
2019-06-19T15:08:16.400Z,30.80
2019-06-19T15:10:44.817Z,30.77
2019-06-19T15:13:13.118Z,30.63
2019-06-19T15:15:41.506Z,30.63
2019-06-19T15:18:09.882Z,30.66
2019-06-19T15:20:38.429Z,30.72
2019-06-19T15:23:06.781Z,30.61
2019-06-19T15:25:35.271Z,30.25
2019-06-19T15:28:03.646Z,29.98
2019-06-19T15:30:32.057Z,29.65
2019-06-19T15:33:00.401Z,29.34
2019-06-19T15:35:28.727Z,29.02
2019-06-19T15:38:10.724Z,28.70
2019-06-19T15:40:27.410Z,28.22
2019-06-19T15:42:55.707Z,28.05
2019-06-19T15:45:24.124Z,28.07
2019-06-19T15:47:52.494Z,28.28
2019-06-19T15:50:20.829Z,28.54
2019-06-19T15:52:49.156Z,28.93
2019-06-19T15:55:17.557Z,29.08
2019-06-19T15:57:45.880Z,29.29
2019-06-19T16:00:15.223Z,29.47
2019-06-19T16:02:43.623Z,29.69
2019-06-19T16:05:12.762Z,30.01
2019-06-19T16:07:41.243Z,30.15
2019-06-19T16:10:10.189Z,30.26
2019-06-19T16:12:38.611Z,30.43
2019-06-19T16:15:07.610Z,30.61
2019-06-19T16:17:36.559Z,30.69
2019-06-19T16:20:06.454Z,30.77
2019-06-19T16:22:34.798Z,30.80
2019-06-19T16:25:04.403Z,30.83
2019-06-19T16:27:32.812Z,30.80
2019-06-19T16:30:01.524Z,30.80
2019-06-19T16:32:29.880Z,30.63
2019-06-19T16:34:58.429Z,30.41
2019-06-19T16:37:26.781Z,30.37
2019-06-19T16:39:55.169Z,30.33
2019-06-19T16:42:23.475Z,30.39
2019-06-19T16:44:51.793Z,30.46
2019-06-19T16:47:20.156Z,30.47
2019-06-19T16:49:48.579Z,30.41
2019-06-19T16:52:16.922Z,30.41
2019-06-19T16:54:45.394Z,30.32
2019-06-19T16:57:13.841Z,30.18
2019-06-19T16:59:42.344Z,29.93
2019-06-19T17:02:10.708Z,29.87
2019-06-19T17:04:39.067Z,29.70
2019-06-19T17:07:07.374Z,29.57
2019-06-19T17:09:35.860Z,29.63
2019-06-19T17:12:04.319Z,29.61
2019-06-19T17:14:32.722Z,29.50
2019-06-19T17:17:01.905Z,29.42
2019-06-19T17:19:30.399Z,29.38
2019-06-19T17:21:58.736Z,29.29
2019-06-19T17:24:27.075Z,29.12
2019-06-19T17:26:55.494Z,29.15
2019-06-19T17:29:23.957Z,29.24
2019-06-19T17:31:52.285Z,29.26
2019-06-19T17:34:20.644Z,29.15
2019-06-19T17:36:49.153Z,28.94
2019-06-19T17:39:22.417Z,28.76
2019-06-19T17:41:48.306Z,28.67
2019-06-19T17:44:16.659Z,28.64
2019-06-19T17:46:45.162Z,28.57
2019-06-19T17:49:13.501Z,28.45
2019-06-19T17:51:41.838Z,28.43
2019-06-19T17:54:10.198Z,28.42
2019-06-19T17:56:38.543Z,28.41
2019-06-19T17:59:06.915Z,28.38
2019-06-19T18:01:35.252Z,28.39
2019-06-19T18:04:03.610Z,28.41
2019-06-19T18:06:35.406Z,28.40
2019-06-19T18:09:02.219Z,28.34
2019-06-19T18:11:30.538Z,28.32
2019-06-19T18:13:58.935Z,28.24
2019-06-19T18:16:36.215Z,28.23
2019-06-19T18:18:57.680Z,28.22
2019-06-19T18:21:26.083Z,28.23
2019-06-19T18:23:54.407Z,28.21
2019-06-19T18:26:22.837Z,28.31
2019-06-19T18:28:51.208Z,28.33
2019-06-19T18:31:19.665Z,28.42
2019-06-19T18:33:48.034Z,28.43
2019-06-19T18:36:16.665Z,28.41
2019-06-19T18:38:45.124Z,28.35
2019-06-19T18:41:13.470Z,28.35
2019-06-19T18:43:41.759Z,28.35
2019-06-19T18:46:10.259Z,28.34
2019-06-19T18:48:38.557Z,28.30
2019-06-19T18:51:07.119Z,28.26
2019-06-19T18:53:35.480Z,28.22
2019-06-19T18:56:03.923Z,28.19
2019-06-19T18:58:32.285Z,28.15
2019-06-19T19:01:00.679Z,28.10
2019-06-19T19:03:29.037Z,28.12
2019-06-19T19:05:57.548Z,28.06
2019-06-19T19:08:25.932Z,28.08
2019-06-19T19:10:54.575Z,28.09
2019-06-19T19:13:22.885Z,28.10
2019-06-19T19:15:51.176Z,28.11
2019-06-19T19:18:19.664Z,28.01
2019-06-19T19:20:48.228Z,27.92
2019-06-19T19:23:16.560Z,27.81
2019-06-19T19:25:44.862Z,27.78
2019-06-19T19:28:13.298Z,27.72
2019-06-19T19:30:41.680Z,27.65
2019-06-19T19:33:10.089Z,27.51
2019-06-19T19:35:38.384Z,27.49
2019-06-19T19:38:06.726Z,27.47
2019-06-19T19:40:35.091Z,27.35
2019-06-19T19:43:03.560Z,27.39
2019-06-19T19:45:31.906Z,27.26
2019-06-19T19:48:00.240Z,27.22
2019-06-19T19:50:28.565Z,27.15
2019-06-19T19:53:05.300Z,27.06
2019-06-19T19:55:27.104Z,27.06
2019-06-19T19:57:55.530Z,27.02
2019-06-19T20:00:39.454Z,26.95
2019-06-19T20:03:08.113Z,27.01
2019-06-19T20:05:36.511Z,27.01
2019-06-19T20:08:05.449Z,27.01
2019-06-19T20:10:46.048Z,26.95
2019-06-19T20:13:04.278Z,26.71
2019-06-19T20:15:32.617Z,26.60
2019-06-19T20:18:01.114Z,26.59
2019-06-19T20:20:29.528Z,26.47
2019-06-19T20:22:57.939Z,26.37
2019-06-19T20:25:26.297Z,26.21
2019-06-19T20:27:54.712Z,26.16
2019-06-19T20:30:23.167Z,26.18
2019-06-19T20:32:51.496Z,26.19
2019-06-19T20:35:19.972Z,26.30
2019-06-19T20:37:48.342Z,26.26
2019-06-19T20:40:17.327Z,26.22
2019-06-19T20:42:45.697Z,26.22
2019-06-19T20:45:14.519Z,26.19
2019-06-19T20:47:42.986Z,26.11
2019-06-19T20:50:12.319Z,25.89
2019-06-19T20:52:54.838Z,25.79
2019-06-19T20:55:10.875Z,25.75
2019-06-19T20:57:39.200Z,25.76
2019-06-19T21:00:15.602Z,25.80
